createdAt,value
2023-05-10T06:56:05.428Z,38.72
2023-05-10T06:57:08.909Z,38.31
2023-05-10T06:58:12.933Z,37.26
2023-05-10T06:59:05.449Z,36.92
2023-05-10T07:00:05.452Z,36.70
2023-05-10T07:01:05.469Z,36.73
2023-05-10T07:02:05.410Z,36.62
2023-05-10T07:03:06.053Z,36.56
2023-05-10T07:04:05.495Z,36.82
2023-05-10T07:05:05.507Z,37.00
2023-05-10T07:06:05.546Z,37.14
2023-05-10T07:07:05.569Z,37.10
2023-05-10T07:08:05.602Z,37.25
2023-05-10T07:09:05.642Z,37.36
2023-05-10T07:10:05.695Z,37.30
2023-05-10T07:11:05.692Z,37.32
2023-05-10T07:12:06.827Z,37.44
2023-05-10T07:13:05.842Z,37.55
2023-05-10T07:14:05.793Z,37.63
2023-05-10T07:15:05.850Z,37.61
2023-05-10T07:16:05.935Z,37.65
2023-05-10T07:17:05.946Z,37.69
2023-05-10T07:18:06.160Z,37.71
2023-05-10T07:19:06.003Z,37.89
2023-05-10T07:20:06.036Z,37.84
2023-05-10T07:21:06.154Z,37.85
2023-05-10T07:22:06.278Z,37.76
2023-05-10T07:23:06.148Z,37.74
2023-05-10T07:24:06.179Z,37.71
2023-05-10T07:25:06.230Z,37.81
2023-05-10T07:26:06.270Z,37.64
2023-05-10T07:27:06.527Z,37.81
2023-05-10T07:28:06.331Z,37.47
2023-05-10T07:29:06.421Z,38.60
2023-05-10T07:30:06.409Z,39.03
2023-05-10T07:31:06.474Z,38.94
2023-05-10T07:32:06.552Z,38.61
2023-05-10T07:33:06.748Z,38.69
2023-05-10T07:34:06.558Z,38.39
2023-05-10T07:35:06.580Z,38.44
2023-05-10T07:36:06.595Z,38.33
2023-05-10T07:37:06.625Z,38.27
2023-05-10T07:38:06.622Z,38.42
2023-05-10T07:39:06.637Z,38.39
2023-05-10T07:40:06.648Z,38.41
2023-05-10T07:41:06.656Z,38.52
2023-05-10T07:42:06.682Z,38.32
2023-05-10T07:43:06.643Z,38.29
2023-05-10T07:44:06.654Z,38.31
2023-05-10T07:45:06.666Z,38.27
2023-05-10T07:46:06.707Z,38.31
2023-05-10T07:47:06.716Z,38.29
2023-05-10T07:48:06.706Z,38.20
2023-05-10T07:49:06.663Z,38.20
2023-05-10T07:50:07.913Z,38.23
2023-05-10T07:51:06.649Z,38.22
2023-05-10T07:52:06.686Z,38.19
2023-05-10T07:53:06.752Z,38.16
2023-05-10T07:54:06.795Z,38.11
2023-05-10T07:55:07.026Z,38.10
2023-05-10T07:56:06.857Z,38.05
2023-05-10T07:57:06.881Z,38.03
2023-05-10T07:58:06.952Z,38.01
2023-05-10T07:59:07.033Z,38.01
2023-05-10T08:00:07.613Z,37.97
2023-05-10T08:01:07.189Z,37.97
2023-05-10T08:02:07.237Z,37.88
2023-05-10T08:03:07.307Z,37.93
2023-05-10T08:04:07.453Z,37.97
2023-05-10T08:05:07.384Z,37.94
2023-05-10T08:06:07.454Z,38.01
2023-05-10T08:07:07.508Z,38.05
2023-05-10T08:08:07.574Z,38.02
2023-05-10T08:09:07.644Z,38.04
2023-05-10T08:10:07.693Z,38.09
2023-05-10T08:11:07.728Z,37.96
2023-05-10T08:12:07.780Z,38.06
2023-05-10T08:13:07.829Z,38.07
2023-05-10T08:14:07.896Z,38.24
2023-05-10T08:15:08.010Z,38.06
2023-05-10T08:16:08.045Z,38.13
2023-05-10T08:17:08.048Z,38.15
2023-05-10T08:18:08.118Z,38.15
2023-05-10T08:19:08.185Z,38.09
2023-05-10T08:20:08.552Z,38.11
2023-05-10T08:21:08.222Z,37.75
2023-05-10T08:22:08.291Z,38.43
2023-05-10T08:23:08.337Z,38.17
2023-05-10T08:24:08.387Z,38.12
2023-05-10T08:25:08.311Z,38.07
2023-05-10T08:26:08.344Z,38.36
2023-05-10T08:27:08.330Z,38.31
2023-05-10T08:28:09.919Z,38.49
2023-05-10T08:29:08.359Z,38.39
2023-05-10T08:30:08.368Z,38.94
2023-05-10T08:31:09.035Z,38.67
2023-05-10T08:32:08.360Z,38.80
2023-05-10T08:33:08.453Z,38.82
2023-05-10T08:34:09.045Z,38.94
2023-05-10T08:35:09.065Z,39.01
2023-05-10T08:36:08.597Z,38.87
2023-05-10T08:37:08.662Z,39.01
2023-05-10T08:38:08.727Z,39.15
2023-05-10T08:39:16.207Z,39.16
2023-05-10T08:40:10.018Z,39.05
2023-05-10T08:41:08.864Z,39.07
2023-05-10T08:42:08.754Z,39.09
2023-05-10T08:43:08.760Z,39.39
2023-05-10T08:44:08.749Z,39.21
2023-05-10T08:45:09.073Z,39.23
2023-05-10T08:46:08.827Z,39.21
2023-05-10T08:47:08.844Z,39.27
2023-05-10T08:48:08.786Z,39.31
2023-05-10T08:49:08.838Z,39.31
2023-05-10T08:50:08.846Z,39.66
2023-05-10T08:51:09.010Z,39.35
2023-05-10T08:52:08.954Z,39.41
2023-05-10T08:53:09.020Z,39.32
2023-05-10T08:54:09.037Z,39.48
2023-05-10T08:55:09.239Z,39.47
2023-05-10T08:56:09.141Z,39.37
2023-05-10T08:57:09.173Z,39.30
2023-05-10T08:58:09.210Z,38.99
2023-05-10T08:59:09.306Z,38.93
2023-05-10T09:00:09.317Z,38.85
2023-05-10T09:02:09.429Z,38.67
2023-05-10T09:03:09.516Z,38.68
2023-05-10T09:04:09.643Z,38.63
2023-05-10T09:05:09.658Z,38.42
2023-05-10T09:06:09.708Z,38.22
2023-05-10T09:07:09.774Z,38.39
2023-05-10T09:08:09.791Z,38.40
2023-05-10T09:09:09.729Z,38.43
2023-05-10T09:10:10.043Z,38.18
2023-05-10T09:11:09.743Z,38.31
2023-05-10T09:12:09.740Z,38.22
2023-05-10T09:13:09.814Z,38.27
2023-05-10T09:14:09.736Z,38.15
2023-05-10T09:15:10.058Z,38.07
2023-05-10T09:16:20.421Z,37.51
2023-05-10T09:17:10.721Z,37.77
2023-05-10T09:18:09.862Z,37.78
2023-05-10T09:19:09.838Z,37.93
2023-05-10T09:20:09.732Z,37.98
2023-05-10T09:21:09.657Z,38.10
2023-05-10T09:22:09.753Z,38.09
2023-05-10T09:23:09.671Z,38.08
2023-05-10T09:24:09.647Z,38.19
2023-05-10T09:25:10.062Z,38.11
2023-05-10T09:26:10.045Z,38.14
2023-05-10T09:27:09.749Z,37.83
2023-05-10T09:28:09.828Z,38.09
2023-05-10T09:29:09.879Z,38.07
2023-05-10T09:30:10.047Z,38.01
2023-05-10T09:31:10.152Z,37.95
2023-05-10T09:32:10.039Z,38.00
2023-05-10T09:33:10.079Z,38.00
2023-05-10T09:34:10.150Z,37.93
2023-05-10T09:35:10.193Z,37.94
2023-05-10T09:36:10.590Z,37.91
2023-05-10T09:37:10.278Z,37.82
2023-05-10T09:38:10.346Z,37.81
2023-05-10T09:39:10.373Z,37.73
2023-05-10T09:40:10.429Z,37.60
2023-05-10T09:41:10.466Z,37.56
2023-05-10T09:42:10.553Z,37.36
2023-05-10T09:43:10.564Z,37.36
2023-05-10T09:44:10.604Z,37.28
2023-05-10T09:45:10.664Z,37.24
2023-05-10T09:46:11.101Z,37.12
2023-05-10T09:47:10.751Z,36.96
2023-05-10T09:48:10.889Z,36.71
2023-05-10T09:49:10.884Z,36.74
2023-05-10T09:50:10.941Z,36.36
2023-05-10T09:51:10.993Z,36.63
2023-05-10T09:52:11.004Z,36.38
2023-05-10T09:53:11.061Z,36.46
2023-05-10T09:54:11.127Z,36.41
2023-05-10T09:55:11.179Z,36.41
2023-05-10T09:56:11.220Z,36.39
2023-05-10T09:57:11.272Z,36.35
2023-05-10T09:58:11.622Z,36.25
2023-05-10T09:59:11.370Z,36.22
2023-05-10T10:00:11.451Z,36.17
2023-05-10T10:01:11.534Z,36.16
2023-05-10T10:02:11.538Z,36.17
2023-05-10T10:03:11.656Z,36.13
2023-05-10T10:04:11.653Z,36.13
2023-05-10T10:05:11.997Z,36.06
2023-05-10T10:06:22.591Z,36.05
2023-05-10T10:07:12.801Z,35.97
2023-05-10T10:08:11.785Z,35.94
2023-05-10T10:09:11.765Z,35.93
2023-05-10T10:10:11.780Z,35.96
2023-05-10T10:11:11.751Z,35.89
2023-05-10T10:12:11.752Z,35.89
2023-05-10T10:13:11.731Z,35.93
2023-05-10T10:14:11.753Z,35.80
2023-05-10T10:15:11.747Z,35.87
2023-05-10T10:16:12.098Z,35.85
2023-05-10T10:17:11.861Z,35.85
2023-05-10T10:18:11.936Z,35.80
2023-05-10T10:19:12.002Z,35.77
2023-05-10T10:20:12.312Z,34.83
2023-05-10T10:21:12.571Z,34.96
2023-05-10T10:22:12.105Z,34.75
2023-05-10T10:23:12.147Z,34.79
2023-05-10T10:24:12.207Z,34.94
2023-05-10T10:25:12.205Z,35.95
2023-05-10T10:26:12.587Z,36.80
2023-05-10T10:27:12.206Z,37.11
2023-05-10T10:28:12.244Z,37.55
2023-05-10T10:29:12.247Z,37.85
2023-05-10T10:30:12.226Z,37.92
2023-05-10T10:31:12.291Z,37.75
2023-05-10T10:32:12.290Z,37.90
2023-05-10T10:33:20.643Z,38.05
2023-05-10T10:34:13.345Z,37.81
2023-05-10T10:35:12.359Z,38.33
2023-05-10T10:36:12.578Z,38.38
2023-05-10T10:37:12.323Z,38.38
2023-05-10T10:38:12.322Z,38.31
2023-05-10T10:39:12.327Z,38.28
2023-05-10T10:40:12.310Z,38.18
2023-05-10T10:41:12.335Z,38.03
2023-05-10T10:42:12.459Z,37.95
2023-05-10T10:43:12.290Z,37.86
2023-05-10T10:44:12.285Z,37.83
2023-05-10T10:45:12.326Z,37.89
2023-05-10T10:46:12.307Z,37.79
2023-05-10T10:47:12.327Z,37.86
2023-05-10T10:48:12.277Z,37.68
2023-05-10T10:49:12.232Z,37.72
2023-05-10T10:50:12.270Z,37.76
2023-05-10T10:51:12.887Z,37.76
2023-05-10T10:52:12.218Z,37.65
2023-05-10T10:53:12.279Z,37.40
2023-05-10T10:54:12.230Z,37.58
2023-05-10T10:55:12.220Z,37.38
2023-05-10T10:56:12.255Z,37.10
2023-05-10T10:57:12.181Z,37.70
2023-05-10T10:58:12.186Z,37.10
2023-05-10T10:59:12.160Z,37.02
2023-05-10T11:00:12.164Z,37.30
2023-05-10T11:01:12.229Z,37.03
2023-05-10T11:02:12.191Z,37.28
2023-05-10T11:03:12.255Z,37.33
2023-05-10T11:04:12.264Z,37.27
2023-05-10T11:05:12.230Z,37.37
2023-05-10T11:06:12.220Z,37.34
2023-05-10T11:07:12.363Z,37.25
2023-05-10T11:08:12.249Z,37.48
2023-05-10T11:09:12.258Z,37.32
2023-05-10T11:10:12.275Z,37.19
2023-05-10T11:11:12.329Z,37.27
2023-05-10T11:12:12.305Z,37.26
2023-05-10T11:13:12.296Z,37.67
2023-05-10T11:14:12.331Z,37.06
2023-05-10T11:15:12.351Z,36.35
2023-05-10T11:16:12.679Z,36.99
2023-05-10T11:17:12.510Z,36.87
2023-05-10T11:18:12.558Z,36.93
2023-05-10T11:19:12.651Z,37.10
2023-05-10T11:20:12.648Z,37.24
2023-05-10T11:21:12.719Z,37.08
2023-05-10T11:22:12.762Z,36.94
2023-05-10T11:23:12.829Z,37.02
2023-05-10T11:24:12.881Z,36.90
2023-05-10T11:25:12.944Z,36.68
2023-05-10T11:26:13.017Z,36.55
2023-05-10T11:27:13.049Z,36.39
2023-05-10T11:28:13.134Z,36.05
2023-05-10T11:29:13.172Z,35.92
2023-05-10T11:30:13.248Z,35.80
2023-05-10T11:31:13.301Z,35.79
2023-05-10T11:32:13.339Z,35.72
2023-05-10T11:33:13.395Z,35.57
2023-05-10T11:34:13.432Z,35.43
2023-05-10T11:35:13.494Z,35.19
2023-05-10T11:36:13.543Z,34.88
2023-05-10T11:37:13.605Z,34.97
2023-05-10T11:38:13.650Z,34.87
2023-05-10T11:39:13.735Z,34.95
2023-05-10T11:40:13.839Z,34.92
2023-05-10T11:41:13.849Z,34.89
2023-05-10T11:42:13.901Z,34.90
2023-05-10T11:43:13.964Z,34.93
2023-05-10T11:44:14.017Z,34.85
2023-05-10T11:45:14.069Z,34.97
2023-05-10T11:46:14.133Z,34.92
2023-05-10T11:47:14.195Z,34.90
2023-05-10T11:48:14.286Z,34.97
2023-05-10T11:49:14.295Z,34.92
2023-05-10T11:50:14.400Z,34.91
2023-05-10T11:51:14.408Z,35.15
2023-05-10T11:52:14.425Z,35.03
2023-05-10T11:53:14.444Z,35.12
2023-05-10T11:54:14.466Z,35.12
2023-05-10T11:55:14.503Z,35.08
2023-05-10T11:56:14.547Z,35.17
2023-05-10T11:57:14.562Z,35.08
2023-05-10T11:58:14.603Z,35.12
2023-05-10T11:59:14.642Z,35.20
2023-05-10T12:00:14.995Z,35.30
2023-05-10T12:01:14.693Z,35.38
2023-05-10T12:02:14.814Z,35.23
2023-05-10T12:03:14.839Z,35.21
2023-05-10T12:04:14.955Z,35.18
2023-05-10T12:05:14.784Z,35.27
2023-05-10T12:06:15.115Z,36.73
2023-05-10T12:07:14.808Z,36.20
2023-05-10T12:08:14.811Z,36.04
2023-05-10T12:09:14.807Z,36.37
2023-05-10T12:10:14.903Z,36.86
2023-05-10T12:11:15.132Z,36.59
2023-05-10T12:12:14.923Z,36.52
2023-05-10T12:13:15.010Z,36.23
2023-05-10T12:14:15.057Z,36.36
2023-05-10T12:15:15.116Z,36.22
2023-05-10T12:16:15.648Z,36.22
2023-05-10T12:17:15.220Z,36.16
2023-05-10T12:18:15.353Z,36.32
2023-05-10T12:19:15.334Z,36.31
2023-05-10T12:20:15.763Z,36.34
2023-05-10T12:21:15.470Z,36.69
2023-05-10T12:22:15.481Z,37.06
2023-05-10T12:23:15.575Z,36.88
2023-05-10T12:24:15.597Z,36.89
2023-05-10T12:25:15.644Z,36.99
2023-05-10T12:26:15.694Z,36.98
2023-05-10T12:27:15.701Z,36.73
2023-05-10T12:28:15.754Z,36.61
2023-05-10T12:29:15.809Z,36.48
2023-05-10T12:30:15.929Z,36.39
2023-05-10T12:31:15.910Z,36.30
2023-05-10T12:32:16.076Z,36.19
2023-05-10T12:33:16.232Z,36.16
2023-05-10T12:34:16.009Z,36.11
2023-05-10T12:35:16.074Z,36.00
2023-05-10T12:36:16.111Z,36.03
2023-05-10T12:37:16.122Z,36.01
2023-05-10T12:38:16.158Z,35.99
2023-05-10T12:39:16.194Z,36.03
2023-05-10T12:40:16.497Z,35.99
2023-05-10T12:41:16.299Z,35.97
2023-05-10T12:42:16.272Z,35.98
2023-05-10T12:43:16.323Z,36.00
2023-05-10T12:44:16.368Z,35.99
2023-05-10T12:45:16.411Z,36.01
2023-05-10T12:46:16.513Z,35.99
2023-05-10T12:47:16.451Z,35.99
2023-05-10T12:48:16.484Z,36.00
2023-05-10T12:49:16.519Z,36.00
2023-05-10T12:50:16.824Z,36.00
2023-05-10T12:51:16.762Z,36.04
2023-05-10T12:52:16.640Z,36.00
2023-05-10T12:53:16.660Z,36.04
2023-05-10T12:54:16.697Z,36.02
2023-05-10T12:55:16.721Z,36.00
2023-05-10T12:56:16.776Z,35.98
2023-05-10T12:57:16.797Z,35.97
2023-05-10T12:58:31.423Z,35.97
2023-05-10T12:59:17.816Z,36.02
2023-05-10T13:00:16.988Z,35.95
2023-05-10T13:01:16.881Z,35.94
2023-05-10T13:02:16.814Z,35.90
2023-05-10T13:03:16.788Z,35.93
2023-05-10T13:04:16.825Z,35.93
2023-05-10T13:05:16.757Z,35.96
2023-05-10T13:06:16.798Z,35.90
2023-05-10T13:07:16.740Z,35.90
2023-05-10T13:08:16.757Z,35.87
2023-05-10T13:09:16.725Z,35.84
2023-05-10T13:10:17.028Z,35.87
2023-05-10T13:11:16.757Z,35.88
2023-05-10T13:12:16.711Z,35.84
2023-05-10T13:13:16.769Z,35.82
2023-05-10T13:14:16.812Z,35.81
2023-05-10T13:15:16.819Z,35.80
2023-05-10T13:16:17.529Z,35.82
2023-05-10T13:17:17.182Z,35.76
2023-05-10T13:18:16.947Z,35.75
2023-05-10T13:19:17.103Z,35.78
2023-05-10T13:20:17.311Z,35.78
2023-05-10T13:21:17.037Z,35.76
2023-05-10T13:22:22.922Z,35.71
2023-05-10T13:23:18.053Z,35.75
2023-05-10T13:24:17.044Z,35.74
2023-05-10T13:25:17.034Z,35.75
2023-05-10T13:26:17.036Z,35.73
2023-05-10T13:27:17.027Z,35.76
2023-05-10T13:28:17.011Z,35.76
2023-05-10T13:29:16.987Z,35.80
2023-05-10T13:30:17.206Z,35.72
2023-05-10T13:31:17.115Z,35.73
2023-05-10T13:32:16.987Z,35.72
2023-05-10T13:33:17.009Z,35.71
2023-05-10T13:34:16.990Z,35.74
2023-05-10T13:35:16.965Z,35.73
2023-05-10T13:36:16.953Z,35.71
2023-05-10T13:37:16.968Z,35.67
2023-05-10T13:38:17.001Z,35.68
2023-05-10T13:39:17.046Z,35.70
2023-05-10T13:40:17.360Z,35.67
2023-05-10T13:41:17.113Z,35.66
2023-05-10T13:42:17.157Z,35.60
2023-05-10T13:43:17.179Z,35.63
2023-05-10T13:44:17.252Z,35.63
2023-05-10T13:45:17.423Z,35.59
2023-05-10T13:46:17.318Z,35.64
2023-05-10T13:47:17.304Z,35.59
2023-05-10T13:48:17.359Z,35.56
2023-05-10T13:49:17.678Z,35.53
2023-05-10T13:50:17.682Z,35.58
2023-05-10T13:51:17.467Z,35.52
2023-05-10T13:52:17.496Z,35.51
2023-05-10T13:53:17.521Z,35.48
2023-05-10T13:54:17.566Z,35.50
2023-05-10T13:55:17.875Z,35.47
2023-05-10T13:56:17.661Z,35.46
2023-05-10T13:57:17.732Z,35.44
2023-05-10T13:58:17.754Z,35.41
2023-05-10T13:59:17.834Z,35.40
2023-05-10T14:00:18.188Z,35.42
2023-05-10T14:01:17.878Z,35.45
2023-05-10T14:02:18.227Z,35.43
2023-05-10T14:03:18.100Z,35.39
2023-05-10T14:04:17.959Z,35.40
2023-05-10T14:05:18.901Z,35.35
2023-05-10T14:06:18.009Z,35.35
2023-05-10T14:07:18.181Z,35.36
2023-05-10T14:08:17.994Z,35.33
2023-05-10T14:09:17.961Z,35.28
2023-05-10T14:10:17.974Z,35.32
2023-05-10T14:11:17.960Z,35.31
2023-05-10T14:12:18.047Z,35.26
2023-05-10T14:13:17.954Z,35.22
2023-05-10T14:14:17.951Z,35.25
2023-05-10T14:15:18.203Z,35.21
2023-05-10T14:16:17.940Z,35.17
2023-05-10T14:17:17.912Z,35.17
2023-05-10T14:18:17.953Z,35.14
2023-05-10T14:19:17.904Z,35.12
2023-05-10T14:20:17.903Z,35.10
2023-05-10T14:21:17.898Z,35.06
2023-05-10T14:22:17.890Z,35.05
2023-05-10T14:23:17.876Z,34.94
2023-05-10T14:24:17.884Z,34.95
2023-05-10T14:25:18.094Z,34.98
2023-05-10T14:26:17.845Z,34.94
2023-05-10T14:27:17.855Z,34.95
2023-05-10T14:28:17.924Z,34.88
2023-05-10T14:29:17.834Z,34.83
2023-05-10T14:30:17.843Z,34.81
2023-05-10T14:31:17.978Z,34.79
2023-05-10T14:32:17.939Z,34.72
2023-05-10T14:33:17.813Z,34.74
2023-05-10T14:34:17.797Z,34.71
2023-05-10T14:35:19.710Z,34.68
2023-05-10T14:36:17.813Z,34.60
2023-05-10T14:37:17.783Z,34.56
2023-05-10T14:38:17.785Z,34.54
2023-05-10T14:39:17.829Z,34.56
2023-05-10T14:40:17.882Z,34.51
2023-05-10T14:41:17.908Z,34.50
2023-05-10T14:42:17.949Z,34.48
2023-05-10T14:43:17.991Z,34.48
2023-05-10T14:44:18.041Z,34.43
2023-05-10T14:45:18.266Z,34.40
2023-05-10T14:46:18.196Z,34.42
2023-05-10T14:47:18.163Z,34.38
2023-05-10T14:48:18.195Z,34.35
2023-05-10T14:49:18.254Z,34.35
2023-05-10T14:50:32.340Z,34.31
2023-05-10T14:51:19.272Z,34.31
2023-05-10T14:52:18.289Z,34.32
2023-05-10T14:53:18.260Z,34.27
2023-05-10T14:54:18.248Z,34.30
2023-05-10T14:55:18.428Z,34.24
2023-05-10T14:56:18.234Z,34.26
2023-05-10T14:57:18.220Z,34.27
2023-05-10T14:58:18.204Z,34.22
2023-05-10T14:59:18.194Z,34.22
2023-05-10T15:00:18.364Z,34.23
2023-05-10T15:01:18.212Z,34.17
2023-05-10T15:02:18.215Z,34.19
2023-05-10T15:03:18.350Z,34.15
2023-05-10T15:04:18.295Z,34.14
2023-05-10T15:05:18.586Z,34.13
2023-05-10T15:06:18.385Z,34.09
2023-05-10T15:07:18.447Z,34.11
2023-05-10T15:08:18.488Z,34.09
2023-05-10T15:09:18.508Z,34.05
2023-05-10T15:10:18.561Z,34.02
2023-05-10T15:11:18.612Z,34.01
2023-05-10T15:12:18.693Z,34.00
2023-05-10T15:13:18.744Z,33.97
2023-05-10T15:14:18.785Z,33.98
2023-05-10T15:15:19.023Z,33.94
2023-05-10T15:16:18.923Z,33.92
2023-05-10T15:17:18.911Z,33.93
2023-05-10T15:18:19.059Z,33.92
2023-05-10T15:19:19.039Z,33.93
2023-05-10T15:20:19.060Z,33.90
2023-05-10T15:21:19.160Z,33.89
2023-05-10T15:22:19.166Z,33.89
2023-05-10T15:23:19.211Z,33.85
2023-05-10T15:24:19.261Z,33.88
2023-05-10T15:25:19.494Z,33.91
2023-05-10T15:26:19.352Z,33.89
2023-05-10T15:27:19.407Z,33.86
2023-05-10T15:28:19.443Z,33.88
2023-05-10T15:29:19.513Z,33.86
2023-05-10T15:30:19.553Z,33.82
2023-05-10T15:31:19.625Z,33.85
2023-05-10T15:32:19.650Z,33.89
2023-05-10T15:33:19.709Z,33.86
2023-05-10T15:34:19.799Z,33.84
2023-05-10T15:35:19.810Z,33.85
2023-05-10T15:36:19.856Z,33.87
2023-05-10T15:37:19.924Z,33.79
2023-05-10T15:38:19.943Z,33.78
2023-05-10T15:39:20.000Z,33.75
2023-05-10T15:40:20.055Z,33.82
2023-05-10T15:41:20.115Z,33.79
2023-05-10T15:42:20.149Z,33.72
2023-05-10T15:43:20.219Z,33.76
2023-05-10T15:44:20.257Z,33.75
2023-05-10T15:45:20.340Z,33.73
2023-05-10T15:46:20.364Z,33.76
2023-05-10T15:47:20.419Z,33.71
2023-05-10T15:48:20.504Z,33.68
2023-05-10T15:49:20.488Z,33.69
2023-05-10T15:50:20.560Z,33.68
2023-05-10T15:51:20.606Z,33.67
2023-05-10T15:52:20.665Z,33.69
2023-05-10T15:53:20.703Z,33.66
2023-05-10T15:54:20.769Z,33.64
2023-05-10T15:55:20.788Z,33.62
2023-05-10T15:56:20.851Z,33.62
2023-05-10T15:57:20.889Z,33.56
2023-05-10T15:58:20.953Z,33.60
2023-05-10T15:59:21.027Z,33.65
2023-05-10T16:00:21.041Z,33.58
2023-05-10T16:01:21.123Z,33.61
2023-05-10T16:02:21.205Z,33.60
2023-05-10T16:03:21.243Z,33.63
2023-05-10T16:04:21.273Z,33.62
2023-05-10T16:05:21.303Z,33.63
2023-05-10T16:06:21.366Z,33.58
2023-05-10T16:07:21.482Z,33.55
2023-05-10T16:08:21.464Z,33.52
2023-05-10T16:09:21.499Z,33.52
2023-05-10T16:10:21.544Z,33.49
2023-05-10T16:11:21.600Z,33.52
2023-05-10T16:12:21.679Z,33.49
2023-05-10T16:13:21.683Z,33.48
2023-05-10T16:14:21.739Z,33.43
2023-05-10T16:15:21.819Z,33.38
2023-05-10T16:16:21.874Z,33.38
2023-05-10T16:17:21.890Z,33.42
2023-05-10T16:18:22.000Z,33.40
2023-05-10T16:19:22.062Z,33.35
2023-05-10T16:20:22.087Z,33.32
2023-05-10T16:21:22.090Z,33.35
2023-05-10T16:22:22.153Z,33.33
2023-05-10T16:23:22.193Z,33.35
2023-05-10T16:24:22.263Z,33.36
2023-05-10T16:25:22.305Z,33.29
2023-05-10T16:26:22.374Z,33.36
2023-05-10T16:27:22.441Z,33.35
2023-05-10T16:28:22.554Z,33.27
2023-05-10T16:29:22.543Z,33.38
2023-05-10T16:30:23.996Z,33.29
2023-05-10T16:31:22.676Z,33.28
2023-05-10T16:32:22.717Z,33.28
2023-05-10T16:33:22.808Z,33.25
2023-05-10T16:34:22.913Z,33.29
2023-05-10T16:35:22.938Z,33.25
2023-05-10T16:36:22.916Z,33.29
2023-05-10T16:37:22.978Z,33.26
2023-05-10T16:38:23.024Z,33.25
2023-05-10T16:39:23.073Z,33.27
2023-05-10T16:40:23.142Z,33.32
2023-05-10T16:41:23.188Z,33.32
2023-05-10T16:42:23.259Z,33.27
2023-05-10T16:43:24.704Z,33.24
2023-05-10T16:44:25.728Z,33.20
2023-05-10T16:45:23.292Z,33.20
2023-05-10T16:46:23.313Z,33.19
2023-05-10T16:47:23.313Z,33.22
2023-05-10T16:48:23.280Z,33.20
2023-05-10T16:49:25.301Z,33.12
2023-05-10T16:50:23.283Z,33.14
2023-05-10T16:51:23.237Z,33.16
2023-05-10T16:52:23.245Z,33.14
2023-05-10T16:53:23.239Z,33.13
2023-05-10T16:54:23.232Z,33.10
2023-05-10T16:55:25.519Z,33.05
2023-05-10T16:56:23.216Z,33.06
2023-05-10T16:57:23.213Z,33.00
2023-05-10T16:58:23.223Z,33.06
2023-05-10T16:59:23.210Z,33.02
2023-05-10T17:00:23.194Z,32.97
2023-05-10T17:01:25.689Z,32.99
2023-05-10T17:02:23.350Z,32.94
2023-05-10T17:03:23.427Z,32.94
2023-05-10T17:04:23.172Z,32.90
2023-05-10T17:05:23.209Z,32.97
2023-05-10T17:06:23.157Z,32.96
2023-05-10T17:07:26.056Z,32.88
2023-05-10T17:08:23.228Z,32.82
2023-05-10T17:09:23.170Z,32.83
2023-05-10T17:10:23.229Z,32.83
2023-05-10T17:11:23.246Z,32.79
2023-05-10T17:12:23.236Z,32.80
2023-05-10T17:13:23.111Z,32.73
2023-05-10T17:14:23.096Z,32.77
2023-05-10T17:15:23.142Z,32.80
2023-05-10T17:16:23.135Z,32.79
2023-05-10T17:17:23.129Z,32.73
2023-05-10T17:18:23.137Z,32.70
2023-05-10T17:19:25.552Z,32.70
2023-05-10T17:20:23.057Z,32.77
2023-05-10T17:21:23.056Z,32.72
2023-05-10T17:22:23.022Z,32.67
2023-05-10T17:23:23.033Z,32.70
2023-05-10T17:24:23.033Z,32.72
2023-05-10T17:25:23.009Z,32.71
2023-05-10T17:26:23.021Z,32.69
2023-05-10T17:27:22.996Z,32.70
2023-05-10T17:28:22.992Z,32.63
2023-05-10T17:29:23.002Z,32.59
2023-05-10T17:30:22.983Z,32.62
2023-05-10T17:31:22.983Z,32.56
2023-05-10T17:32:23.044Z,32.57
2023-05-10T17:33:22.967Z,32.59
2023-05-10T17:34:22.957Z,32.54
2023-05-10T17:35:22.927Z,32.54
2023-05-10T17:36:22.954Z,32.54
2023-05-10T17:37:22.927Z,32.57
2023-05-10T17:38:22.929Z,32.59
2023-05-10T17:39:22.901Z,32.46
2023-05-10T17:40:22.892Z,32.47
2023-05-10T17:41:22.899Z,32.53
2023-05-10T17:42:22.899Z,32.57
2023-05-10T17:43:22.888Z,32.59
2023-05-10T17:44:22.879Z,32.53
2023-05-10T17:45:22.892Z,32.42
2023-05-10T17:46:22.941Z,32.40
2023-05-10T17:47:22.870Z,32.44
2023-05-10T17:48:22.850Z,32.46
2023-05-10T17:49:22.873Z,32.40
2023-05-10T17:50:22.824Z,32.39
2023-05-10T17:51:22.820Z,32.50
2023-05-10T17:52:22.851Z,32.47
2023-05-10T17:53:22.889Z,32.47
2023-05-10T17:54:22.950Z,32.50
2023-05-10T17:55:23.030Z,32.41
2023-05-10T17:56:23.056Z,32.45
2023-05-10T17:57:23.100Z,32.37
2023-05-10T17:58:23.169Z,32.36
2023-05-10T17:59:23.211Z,32.34
2023-05-10T18:00:23.286Z,32.35
2023-05-10T18:01:23.378Z,32.35
2023-05-10T18:02:23.425Z,32.44
2023-05-10T18:03:23.484Z,32.44
2023-05-10T18:04:23.721Z,32.41
2023-05-10T18:05:23.824Z,32.39
2023-05-10T18:06:23.699Z,32.37
2023-05-10T18:07:23.749Z,32.32
2023-05-10T18:08:23.776Z,32.31
2023-05-10T18:09:23.794Z,32.34
2023-05-10T18:10:23.848Z,32.37
2023-05-10T18:11:23.906Z,32.35
2023-05-10T18:12:23.971Z,32.34
2023-05-10T18:13:24.040Z,32.24
2023-05-10T18:14:39.005Z,32.26
2023-05-10T18:15:25.084Z,32.21
2023-05-10T18:16:24.095Z,32.25
2023-05-10T18:17:24.056Z,32.29
2023-05-10T18:18:24.112Z,32.45
2023-05-10T18:19:24.045Z,32.45
2023-05-10T18:20:24.046Z,32.35
2023-05-10T18:21:24.062Z,32.32
2023-05-10T18:22:24.015Z,32.26
2023-05-10T18:23:24.031Z,32.28
2023-05-10T18:24:34.676Z,32.35
2023-05-10T18:25:25.138Z,32.31
2023-05-10T18:26:24.089Z,32.44
2023-05-10T18:27:24.075Z,32.35
2023-05-10T18:28:24.075Z,32.29
2023-05-10T18:29:24.057Z,32.22
2023-05-10T18:30:24.031Z,32.26
2023-05-10T18:31:24.081Z,32.24
2023-05-10T18:32:24.017Z,32.20
2023-05-10T18:33:24.040Z,32.24
2023-05-10T18:34:24.019Z,32.25
2023-05-10T18:35:24.086Z,32.25
2023-05-10T18:36:24.077Z,32.19
2023-05-10T18:37:24.114Z,32.09
2023-05-10T18:38:24.128Z,32.11
2023-05-10T18:39:24.162Z,32.11
2023-05-10T18:40:24.173Z,32.12
2023-05-10T18:41:24.202Z,32.09
2023-05-10T18:42:24.241Z,32.02
2023-05-10T18:43:24.282Z,32.08
2023-05-10T18:44:24.308Z,31.91
2023-05-10T18:45:24.351Z,31.91
2023-05-10T18:46:24.420Z,31.93
2023-05-10T18:47:24.455Z,32.01
2023-05-10T18:48:24.472Z,31.98
2023-05-10T18:49:24.500Z,31.94
2023-05-10T18:50:24.534Z,31.92
2023-05-10T18:51:24.569Z,31.98
2023-05-10T18:52:24.610Z,31.95
2023-05-10T18:53:24.642Z,31.91
2023-05-10T18:54:24.685Z,31.88
2023-05-10T18:55:24.732Z,31.93
2023-05-10T18:56:24.798Z,31.94
2023-05-10T18:57:24.849Z,31.90
2023-05-10T18:58:24.874Z,31.88
2023-05-10T18:59:24.872Z,31.88
2023-05-10T19:00:24.942Z,31.91
2023-05-10T19:01:24.995Z,31.82
2023-05-10T19:02:25.036Z,31.86
2023-05-10T19:03:25.047Z,31.89
2023-05-10T19:04:25.200Z,31.82
2023-05-10T19:05:25.131Z,31.81
2023-05-10T19:06:25.142Z,31.82
2023-05-10T19:07:25.187Z,31.80
2023-05-10T19:08:25.247Z,31.85
2023-05-10T19:09:25.254Z,31.82
2023-05-10T19:10:25.314Z,31.87
2023-05-10T19:11:25.344Z,31.93
2023-05-10T19:12:25.356Z,31.86
2023-05-10T19:13:25.413Z,31.86
2023-05-10T19:14:25.460Z,31.90
2023-05-10T19:15:25.583Z,31.85
2023-05-10T19:16:26.035Z,31.82
2023-05-10T19:17:25.596Z,31.86
2023-05-10T19:18:27.129Z,31.83
2023-05-10T19:19:25.648Z,31.85
2023-05-10T19:20:25.690Z,31.82
2023-05-10T19:21:25.751Z,31.83
2023-05-10T19:22:44.902Z,31.85
2023-05-10T19:23:26.795Z,31.81
2023-05-10T19:24:25.871Z,31.79
2023-05-10T19:25:25.722Z,31.82
2023-05-10T19:26:25.670Z,31.87
2023-05-10T19:27:25.660Z,31.87
2023-05-10T19:28:25.676Z,31.86
2023-05-10T19:29:25.828Z,31.77
2023-05-10T19:30:25.702Z,31.84
2023-05-10T19:31:25.701Z,31.75
2023-05-10T19:32:25.749Z,31.76
2023-05-10T19:33:25.690Z,31.77
2023-05-10T19:34:25.776Z,31.75
2023-05-10T19:35:25.740Z,31.72
2023-05-10T19:36:25.760Z,31.72
2023-05-10T19:37:25.789Z,31.67
2023-05-10T19:38:25.811Z,31.66
2023-05-10T19:39:25.830Z,31.59
2023-05-10T19:40:25.850Z,31.63
2023-05-10T19:41:25.859Z,31.70
2023-05-10T19:42:25.896Z,31.66
2023-05-10T19:43:25.922Z,31.65
2023-05-10T19:44:25.912Z,31.67
2023-05-10T19:45:25.931Z,31.66
2023-05-10T19:46:26.029Z,31.69
2023-05-10T19:47:26.066Z,31.62
2023-05-10T19:48:26.021Z,31.60
2023-05-10T19:49:26.242Z,31.61